createdAt,value
2019-01-19T00:01:51.011Z,99.900002
2019-01-19T00:11:55.670Z,99.900002
2019-01-19T00:16:57.941Z,99.900002
2019-01-19T00:22:00.230Z,99.900002
2019-01-19T00:27:02.625Z,99.900002
2019-01-19T00:32:04.846Z,99.900002
2019-01-19T00:42:09.313Z,99.900002
2019-01-19T00:47:11.685Z,99.900002
2019-01-19T00:52:13.985Z,99.900002
2019-01-19T00:57:16.155Z,99.900002
2019-01-19T01:02:18.521Z,99.900002
2019-01-19T01:07:20.718Z,99.900002
2019-01-19T01:12:23.188Z,99.900002
2019-01-19T01:17:25.357Z,99.900002
2019-01-19T01:22:27.655Z,99.900002
2019-01-19T01:27:30.124Z,99.900002
2019-01-19T01:32:32.231Z,99.900002
2019-01-19T01:37:34.503Z,99.900002
2019-01-19T01:42:36.940Z,99.900002
2019-01-19T01:47:39.106Z,99.900002
2019-01-19T01:52:41.441Z,99.900002
2019-01-19T01:57:43.786Z,99.900002
2019-01-19T02:02:46.061Z,99.900002
2019-01-19T02:07:48.303Z,99.900002
2019-01-19T02:12:50.751Z,99.900002
2019-01-19T02:17:52.794Z,99.900002
2019-01-19T02:22:55.250Z,99.900002
2019-01-19T02:27:57.455Z,99.900002
2019-01-19T02:32:59.851Z,99.900002
2019-01-19T02:38:02.177Z,99.900002
2019-01-19T02:43:04.351Z,99.900002
2019-01-19T02:48:06.665Z,99.900002
2019-01-19T02:53:10.696Z,99.900002
2019-01-19T02:58:12.498Z,99.900002
2019-01-19T03:03:13.472Z,99.900002
2019-01-19T03:08:15.915Z,99.900002
2019-01-19T03:13:18.136Z,99.900002
2019-01-19T03:18:20.435Z,99.900002
2019-01-19T03:23:22.714Z,99.900002
2019-01-19T03:28:25.113Z,99.900002
2019-01-19T03:33:27.240Z,99.900002
2019-01-19T03:43:32.065Z,99.900002
2019-01-19T03:48:34.159Z,99.900002
2019-01-19T03:53:36.501Z,99.900002
2019-01-19T03:58:38.789Z,99.900002
2019-01-19T04:03:41.051Z,99.900002
2019-01-19T04:08:43.417Z,99.900002
2019-01-19T04:13:45.820Z,99.900002
2019-01-19T04:18:47.975Z,99.900002
2019-01-19T04:23:50.246Z,99.900002
2019-01-19T04:28:52.538Z,99.900002
2019-01-19T04:33:56.619Z,99.900002
2019-01-19T04:38:57.085Z,99.900002
2019-01-19T04:43:59.416Z,99.900002
2019-01-19T04:49:01.828Z,99.900002
2019-01-19T04:54:04.059Z,99.900002
2019-01-19T04:59:06.265Z,99.900002
2019-01-19T05:04:08.642Z,99.900002
2019-01-19T05:09:10.996Z,99.900002
2019-01-19T05:14:13.228Z,99.900002
2019-01-19T05:19:15.559Z,99.900002
2019-01-19T05:24:17.720Z,99.900002
2019-01-19T05:29:20.169Z,99.900002
2019-01-19T05:34:22.279Z,99.900002
2019-01-19T05:39:24.656Z,99.900002
2019-01-19T05:44:27.004Z,99.900002
2019-01-19T05:49:29.277Z,99.900002
2019-01-19T05:54:31.653Z,99.900002
2019-01-19T05:59:33.846Z,99.900002
2019-01-19T06:04:36.142Z,99.900002
2019-01-19T06:09:39.521Z,99.900002
2019-01-19T06:14:43.045Z,99.900002
2019-01-19T06:19:42.931Z,99.900002
2019-01-19T06:24:45.396Z,99.900002
2019-01-19T06:29:47.644Z,99.900002
2019-01-19T06:34:49.918Z,99.900002
2019-01-19T06:39:52.256Z,99.900002
2019-01-19T06:44:54.480Z,99.900002
2019-01-19T06:49:56.827Z,99.900002
2019-01-19T06:54:59.028Z,99.900002
2019-01-19T07:05:03.565Z,99.900002
2019-01-19T07:10:05.923Z,99.900002
2019-01-19T07:15:08.344Z,99.900002
2019-01-19T07:20:10.614Z,99.900002
2019-01-19T07:25:13.028Z,99.900002
2019-01-19T07:30:15.118Z,99.900002
2019-01-19T07:35:17.430Z,99.900002
2019-01-19T07:40:20.846Z,99.900002
2019-01-19T07:45:21.986Z,99.900002
2019-01-19T07:50:25.460Z,99.900002
2019-01-19T07:55:26.721Z,99.900002
2019-01-19T08:00:28.823Z,99.900002
2019-01-19T08:05:31.140Z,99.900002
2019-01-19T08:10:33.429Z,99.900002
2019-01-19T08:15:36.807Z,99.900002
2019-01-19T08:20:38.082Z,99.900002
2019-01-19T08:25:40.290Z,99.900002
2019-01-19T08:30:42.687Z,99.900002
2019-01-19T08:35:44.937Z,99.900002
2019-01-19T08:40:47.251Z,99.900002
2019-01-19T08:45:49.518Z,99.900002
2019-01-19T08:50:51.745Z,99.900002
2019-01-19T08:55:54.199Z,99.900002
2019-01-19T09:00:56.394Z,99.900002
2019-01-19T09:05:59.926Z,99.900002
2019-01-19T09:11:01.067Z,99.900002
2019-01-19T09:16:04.363Z,99.900002
2019-01-19T09:21:06.836Z,99.900002
2019-01-19T09:26:09.547Z,99.900002
2019-01-19T09:31:10.190Z,99.900002
2019-01-19T09:36:12.415Z,99.900002
2019-01-19T09:41:14.770Z,99.900002
2019-01-19T09:46:17.072Z,99.900002
2019-01-19T09:51:19.293Z,99.900002
2019-01-19T09:56:21.597Z,99.900002
2019-01-19T10:01:23.949Z,99.900002
2019-01-19T10:06:26.372Z,99.900002
2019-01-19T10:11:28.545Z,99.900002
2019-01-19T10:16:30.829Z,99.900002
2019-01-19T10:21:33.154Z,99.900002
2019-01-19T10:26:35.420Z,99.900002
2019-01-19T10:31:37.601Z,99.900002
2019-01-19T10:36:39.988Z,99.900002
2019-01-19T10:41:42.261Z,99.900002
2019-01-19T10:46:44.582Z,99.900002
2019-01-19T10:52:00.778Z,99.900002
2019-01-19T10:56:49.103Z,99.900002
2019-01-19T11:01:53.258Z,99.900002
2019-01-19T11:06:53.752Z,99.900002
2019-01-19T11:11:56.080Z,99.900002
2019-01-19T11:16:58.347Z,99.900002
2019-01-19T11:22:00.676Z,99.900002
2019-01-19T11:27:02.997Z,99.900002
2019-01-19T11:32:05.306Z,99.900002
2019-01-19T11:37:07.602Z,99.900002
2019-01-19T11:42:09.820Z,99.900002
2019-01-19T11:47:12.174Z,99.900002
2019-01-19T11:52:14.309Z,99.900002
2019-01-19T11:57:16.736Z,1.4
2019-01-19T12:02:18.934Z,1.4
2019-01-19T12:07:21.392Z,1.4
2019-01-19T12:12:23.595Z,1.4
2019-01-19T12:17:25.866Z,1.4
2019-01-19T12:22:28.122Z,1.4
2019-01-19T12:27:30.530Z,1.4
2019-01-19T12:32:32.749Z,1.4
2019-01-19T12:37:36.039Z,1.4
2019-01-19T12:42:37.428Z,1.4
2019-01-19T12:47:39.596Z,1.4
2019-01-19T12:52:42.059Z,1.4
2019-01-19T12:57:44.131Z,1.4
2019-01-19T13:02:46.500Z,1.4
2019-01-19T13:07:48.739Z,99.900002
2019-01-19T13:12:51.115Z,1.4
2019-01-19T13:17:53.499Z,99.900002
2019-01-19T13:22:55.680Z,99.900002
2019-01-19T13:27:57.922Z,99.900002
2019-01-19T13:33:00.300Z,99.900002
2019-01-19T13:38:02.491Z,99.900002
2019-01-19T13:43:04.933Z,99.900002
2019-01-19T13:48:07.171Z,99.900002
2019-01-19T13:53:09.648Z,99.900002
2019-01-19T13:58:11.831Z,99.900002
2019-01-19T14:03:14.093Z,99.900002
2019-01-19T14:08:17.547Z,99.900002
2019-01-19T14:13:20.009Z,98.800003
2019-01-19T14:18:20.991Z,99.599998
2019-01-19T14:23:23.165Z,99.900002
2019-01-19T14:28:25.583Z,97.900002
2019-01-19T14:33:27.815Z,99.900002
2019-01-19T14:38:30.099Z,99.900002
2019-01-19T14:43:32.406Z,99.900002
2019-01-19T14:48:34.580Z,99.900002
2019-01-19T14:58:39.227Z,99.900002
2019-01-19T15:03:41.631Z,99.900002
2019-01-19T15:08:43.845Z,99.900002
2019-01-19T15:13:46.132Z,99.900002
2019-01-19T15:18:48.381Z,99.900002
2019-01-19T15:23:50.892Z,99.900002
2019-01-19T15:28:53.060Z,99.900002
2019-01-19T15:33:55.226Z,99.900002
2019-01-19T15:38:57.724Z,95.800003
2019-01-19T15:43:59.862Z,94
2019-01-19T15:49:02.196Z,90.400002
2019-01-19T15:54:04.461Z,89.800003
2019-01-19T15:59:06.723Z,87.300003
2019-01-19T16:04:09.116Z,87.599998
2019-01-19T16:09:18.064Z,86.300003
2019-01-19T16:14:13.660Z,80.300003
2019-01-19T16:19:16.030Z,80.900002
2019-01-19T16:24:18.271Z,82
2019-01-19T16:29:20.496Z,84.699997
2019-01-19T16:34:22.984Z,86.599998
2019-01-19T16:39:25.781Z,88.099998
2019-01-19T16:44:27.379Z,89.099998
2019-01-19T16:49:29.785Z,92.099998
2019-01-19T16:54:32.033Z,94.099998
2019-01-19T16:59:35.351Z,96.5
2019-01-19T17:04:36.659Z,99.900002
2019-01-19T17:09:38.996Z,99.900002
2019-01-19T17:14:41.132Z,1.4
2019-01-19T17:19:43.523Z,1.4
2019-01-19T17:24:46.870Z,1.4
2019-01-19T17:29:47.997Z,1.4
2019-01-19T17:34:50.267Z,1.4
2019-01-19T17:39:52.679Z,1.4
2019-01-19T17:44:54.984Z,1.4
2019-01-19T17:49:57.194Z,1.4
2019-01-19T17:54:59.477Z,1.4
2019-01-19T18:00:01.905Z,1.4
2019-01-19T18:05:04.062Z,1.4
2019-01-19T18:10:06.463Z,1.4
2019-01-19T18:15:08.860Z,1.4
2019-01-19T18:20:10.925Z,1.4
2019-01-19T18:25:13.290Z,1.4
2019-01-19T18:30:15.724Z,1.4
2019-01-19T18:35:17.860Z,1.4
2019-01-19T18:40:21.169Z,1.4
2019-01-19T18:45:22.411Z,1.4
2019-01-19T18:50:24.803Z,1.4
2019-01-19T18:55:27.156Z,1.4
2019-01-19T19:00:29.262Z,1.4
2019-01-19T19:05:31.658Z,1.4
2019-01-19T19:10:34.020Z,1.4
2019-01-19T19:15:36.349Z,1.4
2019-01-19T19:20:38.546Z,99.900002
2019-01-19T19:25:40.796Z,99.900002
2019-01-19T19:30:43.035Z,99.900002
2019-01-19T19:35:45.439Z,99.900002
2019-01-19T19:40:47.724Z,99.900002
2019-01-19T19:45:49.990Z,99.900002
2019-01-19T19:50:52.208Z,99.900002
2019-01-19T19:55:54.576Z,99.900002
2019-01-19T20:00:56.790Z,99.900002
2019-01-19T20:05:59.183Z,99.900002
2019-01-19T20:11:01.574Z,99.900002
2019-01-19T20:16:05.256Z,99.900002
2019-01-19T20:21:06.065Z,99.900002
2019-01-19T20:26:08.321Z,99.900002
2019-01-19T20:31:10.718Z,99.900002
2019-01-19T20:36:12.918Z,99.900002
2019-01-19T20:46:17.497Z,99.900002
2019-01-19T20:51:19.821Z,99.900002
2019-01-19T20:56:22.162Z,99.900002
2019-01-19T21:01:24.304Z,99.900002
2019-01-19T21:11:28.979Z,99.900002
2019-01-19T21:16:31.273Z,99.900002
2019-01-19T21:21:33.631Z,99.900002
2019-01-19T21:26:37.636Z,99.900002
2019-01-19T21:31:38.112Z,99.900002
2019-01-19T21:36:40.459Z,99.900002
2019-01-19T21:41:42.689Z,99.900002
2019-01-19T21:46:45.047Z,99.900002
2019-01-19T21:51:47.409Z,99.900002
2019-01-19T21:56:49.557Z,99.900002
2019-01-19T22:01:52.019Z,99.900002
2019-01-19T22:06:54.113Z,99.900002
2019-01-19T22:11:56.529Z,99.900002
2019-01-19T22:16:58.806Z,99.900002
2019-01-19T22:22:01.078Z,99.900002
2019-01-19T22:27:03.432Z,99.900002
2019-01-19T22:32:05.756Z,99.900002
2019-01-19T22:37:08.044Z,99.900002
2019-01-19T22:42:10.247Z,99.900002
2019-01-19T22:47:12.515Z,99.900002
2019-01-19T22:52:14.900Z,99.900002
2019-01-19T22:57:17.231Z,99.900002
2019-01-19T23:02:19.431Z,99.900002
2019-01-19T23:07:22.576Z,99.900002
2019-01-19T23:12:24.337Z,99.900002
2019-01-19T23:17:26.321Z,99.900002
2019-01-19T23:22:30.094Z,99.900002
2019-01-19T23:27:32.145Z,99.900002
2019-01-19T23:32:33.316Z,99.900002
2019-01-19T23:37:35.425Z,99.900002
2019-01-19T23:42:37.754Z,99.900002
2019-01-19T23:47:40.098Z,99.900002
2019-01-19T23:52:42.399Z,99.900002
2019-01-19T23:57:44.711Z,99.900002
